sensor_id;sensor_type;location;lat;lon;timestamp;P1;durP1;ratioP1;P2;durP2;ratioP2
69047;SDS011;56119;50.118;8.642;2023-01-28T00:02:11;4.63;;;3.50;;
69047;SDS011;56119;50.118;8.642;2023-01-28T00:04:37;5.53;;;4.00;;
69047;SDS011;56119;50.118;8.642;2023-01-28T00:07:04;6.90;;;3.73;;
69047;SDS011;56119;50.118;8.642;2023-01-28T00:09:30;5.90;;;4.17;;
69047;SDS011;56119;50.118;8.642;2023-01-28T00:11:56;4.43;;;3.90;;
69047;SDS011;56119;50.118;8.642;2023-01-28T00:14:23;6.30;;;3.90;;
69047;SDS011;56119;50.118;8.642;2023-01-28T00:16:49;5.37;;;4.00;;
69047;SDS011;56119;50.118;8.642;2023-01-28T00:19:14;5.23;;;3.47;;
69047;SDS011;56119;50.118;8.642;2023-01-28T00:21:41;5.53;;;4.20;;
69047;SDS011;56119;50.118;8.642;2023-01-28T00:24:07;6.67;;;3.73;;
69047;SDS011;56119;50.118;8.642;2023-01-28T00:26:33;5.43;;;3.60;;
69047;SDS011;56119;50.118;8.642;2023-01-28T00:29:00;5.07;;;3.67;;
69047;SDS011;56119;50.118;8.642;2023-01-28T00:31:26;5.83;;;3.93;;
69047;SDS011;56119;50.118;8.642;2023-01-28T00:33:52;5.10;;;3.80;;
69047;SDS011;56119;50.118;8.642;2023-01-28T00:36:19;7.20;;;4.30;;
69047;SDS011;56119;50.118;8.642;2023-01-28T00:38:52;7.40;;;4.10;;
69047;SDS011;56119;50.118;8.642;2023-01-28T00:41:19;6.30;;;4.37;;
69047;SDS011;56119;50.118;8.642;2023-01-28T00:43:46;6.97;;;4.63;;
69047;SDS011;56119;50.118;8.642;2023-01-28T00:46:12;5.83;;;4.50;;
69047;SDS011;56119;50.118;8.642;2023-01-28T00:48:38;6.07;;;4.20;;
69047;SDS011;56119;50.118;8.642;2023-01-28T00:51:05;5.77;;;4.10;;
69047;SDS011;56119;50.118;8.642;2023-01-28T00:53:31;7.40;;;4.10;;
69047;SDS011;56119;50.118;8.642;2023-01-28T00:55:58;8.20;;;4.50;;
69047;SDS011;56119;50.118;8.642;2023-01-28T00:58:25;6.30;;;4.47;;
69047;SDS011;56119;50.118;8.642;2023-01-28T01:00:51;6.60;;;4.40;;
69047;SDS011;56119;50.118;8.642;2023-01-28T01:03:17;8.17;;;4.60;;
69047;SDS011;56119;50.118;8.642;2023-01-28T01:05:43;6.97;;;4.57;;
69047;SDS011;56119;50.118;8.642;2023-01-28T01:08:09;8.17;;;4.27;;
69047;SDS011;56119;50.118;8.642;2023-01-28T01:10:35;7.47;;;4.50;;
69047;SDS011;56119;50.118;8.642;2023-01-28T01:13:02;6.83;;;4.73;;
69047;SDS011;56119;50.118;8.642;2023-01-28T01:15:28;7.43;;;5.30;;
69047;SDS011;56119;50.118;8.642;2023-01-28T01:17:54;10.27;;;5.30;;
69047;SDS011;56119;50.118;8.642;2023-01-28T01:20:22;7.83;;;4.83;;
69047;SDS011;56119;50.118;8.642;2023-01-28T01:22:48;8.00;;;4.60;;
69047;SDS011;56119;50.118;8.642;2023-01-28T01:25:14;7.30;;;4.53;;
69047;SDS011;56119;50.118;8.642;2023-01-28T01:27:41;7.67;;;4.67;;
69047;SDS011;56119;50.118;8.642;2023-01-28T01:30:07;7.77;;;4.70;;
69047;SDS011;56119;50.118;8.642;2023-01-28T01:32:33;7.70;;;5.17;;
69047;SDS011;56119;50.118;8.642;2023-01-28T01:35:00;6.70;;;4.83;;
69047;SDS011;56119;50.118;8.642;2023-01-28T01:37:26;8.40;;;4.23;;
69047;SDS011;56119;50.118;8.642;2023-01-28T01:39:52;7.07;;;3.70;;
69047;SDS011;56119;50.118;8.642;2023-01-28T01:42:18;4.90;;;4.40;;
69047;SDS011;56119;50.118;8.642;2023-01-28T01:44:46;6.70;;;4.60;;
69047;SDS011;56119;50.118;8.642;2023-01-28T01:47:18;5.60;;;4.60;;
69047;SDS011;56119;50.118;8.642;2023-01-28T01:49:44;6.87;;;4.10;;
69047;SDS011;56119;50.118;8.642;2023-01-28T01:52:12;7.40;;;4.67;;
69047;SDS011;56119;50.118;8.642;2023-01-28T01:54:40;6.17;;;4.20;;
69047;SDS011;56119;50.118;8.642;2023-01-28T01:57:08;7.57;;;4.70;;
69047;SDS011;56119;50.118;8.642;2023-01-28T01:59:34;8.50;;;4.97;;
69047;SDS011;56119;50.118;8.642;2023-01-28T02:02:02;6.73;;;4.47;;
69047;SDS011;56119;50.118;8.642;2023-01-28T02:04:29;4.90;;;4.23;;
69047;SDS011;56119;50.118;8.642;2023-01-28T02:06:57;7.83;;;4.63;;
69047;SDS011;56119;50.118;8.642;2023-01-28T02:09:24;7.73;;;4.63;;
69047;SDS011;56119;50.118;8.642;2023-01-28T02:11:52;6.37;;;4.67;;
69047;SDS011;56119;50.118;8.642;2023-01-28T02:14:20;6.27;;;4.57;;
69047;SDS011;56119;50.118;8.642;2023-01-28T02:16:47;6.90;;;4.73;;
69047;SDS011;56119;50.118;8.642;2023-01-28T02:19:13;6.27;;;4.27;;
69047;SDS011;56119;50.118;8.642;2023-01-28T02:21:49;5.17;;;4.17;;
69047;SDS011;56119;50.118;8.642;2023-01-28T02:32:06;8.53;;;4.60;;
69047;SDS011;56119;50.118;8.642;2023-01-28T02:34:44;7.55;;;4.88;;
69047;SDS011;56119;50.118;8.642;2023-01-28T02:39:39;6.60;;;4.67;;
69047;SDS011;56119;50.118;8.642;2023-01-28T02:42:11;7.83;;;4.63;;
69047;SDS011;56119;50.118;8.642;2023-01-28T02:44:40;7.67;;;4.83;;
69047;SDS011;56119;50.118;8.642;2023-01-28T02:47:10;5.67;;;4.47;;
69047;SDS011;56119;50.118;8.642;2023-01-28T02:49:55;7.53;;;5.07;;
69047;SDS011;56119;50.118;8.642;2023-01-28T02:57:54;6.80;;;5.03;;
69047;SDS011;56119;50.118;8.642;2023-01-28T03:03:06;6.30;;;4.50;;
69047;SDS011;56119;50.118;8.642;2023-01-28T03:05:34;8.63;;;5.07;;
69047;SDS011;56119;50.118;8.642;2023-01-28T03:08:02;8.17;;;4.60;;
69047;SDS011;56119;50.118;8.642;2023-01-28T03:10:49;6.90;;;4.40;;
69047;SDS011;56119;50.118;8.642;2023-01-28T03:13:35;8.77;;;5.20;;
69047;SDS011;56119;50.118;8.642;2023-01-28T03:16:21;7.45;;;4.70;;
69047;SDS011;56119;50.118;8.642;2023-01-28T03:19:05;9.40;;;4.77;;
69047;SDS011;56119;50.118;8.642;2023-01-28T03:21:51;6.17;;;4.73;;
69047;SDS011;56119;50.118;8.642;2023-01-28T03:24:40;6.93;;;5.53;;
69047;SDS011;56119;50.118;8.642;2023-01-28T03:27:35;10.13;;;5.43;;
69047;SDS011;56119;50.118;8.642;2023-01-28T03:30:26;10.77;;;6.23;;
69047;SDS011;56119;50.118;8.642;2023-01-28T03:33:12;7.13;;;4.63;;
69047;SDS011;56119;50.118;8.642;2023-01-28T03:35:57;10.90;;;5.43;;
69047;SDS011;56119;50.118;8.642;2023-01-28T03:38:41;5.37;;;4.20;;
69047;SDS011;56119;50.118;8.642;2023-01-28T03:41:18;7.77;;;4.50;;
69047;SDS011;56119;50.118;8.642;2023-01-28T03:43:44;7.10;;;4.83;;
69047;SDS011;56119;50.118;8.642;2023-01-28T03:46:10;7.00;;;4.90;;
69047;SDS011;56119;50.118;8.642;2023-01-28T03:48:36;7.03;;;4.10;;
69047;SDS011;56119;50.118;8.642;2023-01-28T03:51:02;5.20;;;3.80;;
69047;SDS011;56119;50.118;8.642;2023-01-28T03:53:28;6.50;;;4.47;;
69047;SDS011;56119;50.118;8.642;2023-01-28T03:55:54;7.37;;;4.30;;
69047;SDS011;56119;50.118;8.642;2023-01-28T03:58:23;8.53;;;5.07;;
69047;SDS011;56119;50.118;8.642;2023-01-28T04:01:10;6.65;;;4.18;;
69047;SDS011;56119;50.118;8.642;2023-01-28T04:03:37;7.57;;;4.13;;
69047;SDS011;56119;50.118;8.642;2023-01-28T04:06:04;4.50;;;3.63;;
69047;SDS011;56119;50.118;8.642;2023-01-28T04:08:30;4.88;;;3.60;;
69047;SDS011;56119;50.118;8.642;2023-01-28T04:10:56;7.53;;;4.00;;
69047;SDS011;56119;50.118;8.642;2023-01-28T04:13:24;8.13;;;3.92;;
69047;SDS011;56119;50.118;8.642;2023-01-28T04:15:50;5.32;;;4.00;;
69047;SDS011;56119;50.118;8.642;2023-01-28T04:18:16;7.67;;;4.10;;
69047;SDS011;56119;50.118;8.642;2023-01-28T04:20:43;6.80;;;3.50;;
69047;SDS011;56119;50.118;8.642;2023-01-28T04:23:09;8.38;;;3.90;;
69047;SDS011;56119;50.118;8.642;2023-01-28T04:25:35;5.32;;;3.80;;
69047;SDS011;56119;50.118;8.642;2023-01-28T04:28:01;6.03;;;3.67;;
69047;SDS011;56119;50.118;8.642;2023-01-28T04:30:27;7.15;;;3.72;;
69047;SDS011;56119;50.118;8.642;2023-01-28T04:32:53;5.03;;;3.45;;
69047;SDS011;56119;50.118;8.642;2023-01-28T04:35:19;6.75;;;3.80;;
69047;SDS011;56119;50.118;8.642;2023-01-28T04:37:45;6.17;;;3.97;;
69047;SDS011;56119;50.118;8.642;2023-01-28T04:40:11;5.13;;;3.35;;
69047;SDS011;56119;50.118;8.642;2023-01-28T04:42:37;6.32;;;3.95;;
69047;SDS011;56119;50.118;8.642;2023-01-28T04:45:04;6.55;;;3.80;;
69047;SDS011;56119;50.118;8.642;2023-01-28T04:47:30;4.72;;;3.50;;
69047;SDS011;56119;50.118;8.642;2023-01-28T04:49:56;5.37;;;3.17;;
69047;SDS011;56119;50.118;8.642;2023-01-28T04:52:22;6.80;;;3.40;;
69047;SDS011;56119;50.118;8.642;2023-01-28T04:54:48;6.47;;;3.80;;
69047;SDS011;56119;50.118;8.642;2023-01-28T04:57:14;5.57;;;3.50;;
69047;SDS011;56119;50.118;8.642;2023-01-28T04:59:40;4.60;;;3.23;;
69047;SDS011;56119;50.118;8.642;2023-01-28T05:02:06;4.57;;;3.08;;
69047;SDS011;56119;50.118;8.642;2023-01-28T05:04:32;5.07;;;3.28;;
69047;SDS011;56119;50.118;8.642;2023-01-28T05:06:58;5.43;;;3.50;;
69047;SDS011;56119;50.118;8.642;2023-01-28T05:09:24;4.27;;;2.90;;
69047;SDS011;56119;50.118;8.642;2023-01-28T05:11:50;8.07;;;4.10;;
69047;SDS011;56119;50.118;8.642;2023-01-28T05:14:16;5.68;;;3.05;;
69047;SDS011;56119;50.118;8.642;2023-01-28T05:16:42;6.30;;;4.00;;
69047;SDS011;56119;50.118;8.642;2023-01-28T05:19:08;6.88;;;3.75;;
69047;SDS011;56119;50.118;8.642;2023-01-28T05:21:34;5.63;;;3.50;;
69047;SDS011;56119;50.118;8.642;2023-01-28T05:24:00;9.50;;;3.57;;
69047;SDS011;56119;50.118;8.642;2023-01-28T05:26:26;5.63;;;3.22;;
69047;SDS011;56119;50.118;8.642;2023-01-28T05:28:52;6.80;;;3.63;;
69047;SDS011;56119;50.118;8.642;2023-01-28T05:31:18;4.77;;;3.33;;
69047;SDS011;56119;50.118;8.642;2023-01-28T05:33:44;6.47;;;3.40;;
69047;SDS011;56119;50.118;8.642;2023-01-28T05:36:09;6.33;;;3.67;;
69047;SDS011;56119;50.118;8.642;2023-01-28T05:38:35;6.13;;;4.13;;
69047;SDS011;56119;50.118;8.642;2023-01-28T05:41:01;4.50;;;3.20;;
69047;SDS011;56119;50.118;8.642;2023-01-28T05:43:27;5.60;;;3.27;;
69047;SDS011;56119;50.118;8.642;2023-01-28T05:45:53;4.63;;;3.42;;
69047;SDS011;56119;50.118;8.642;2023-01-28T05:48:19;5.78;;;3.80;;
69047;SDS011;56119;50.118;8.642;2023-01-28T05:50:46;4.43;;;3.37;;
69047;SDS011;56119;50.118;8.642;2023-01-28T05:53:12;7.93;;;3.87;;
69047;SDS011;56119;50.118;8.642;2023-01-28T05:55:38;5.53;;;3.33;;
69047;SDS011;56119;50.118;8.642;2023-01-28T05:58:04;6.17;;;3.60;;
69047;SDS011;56119;50.118;8.642;2023-01-28T06:00:30;8.57;;;4.65;;
69047;SDS011;56119;50.118;8.642;2023-01-28T06:02:56;5.87;;;3.80;;
69047;SDS011;56119;50.118;8.642;2023-01-28T06:05:22;6.70;;;3.87;;
69047;SDS011;56119;50.118;8.642;2023-01-28T06:07:48;4.27;;;3.20;;
69047;SDS011;56119;50.118;8.642;2023-01-28T06:10:14;7.37;;;3.43;;
69047;SDS011;56119;50.118;8.642;2023-01-28T06:12:41;5.97;;;3.53;;
69047;SDS011;56119;50.118;8.642;2023-01-28T06:15:08;6.07;;;3.57;;
69047;SDS011;56119;50.118;8.642;2023-01-28T06:17:34;7.57;;;3.50;;
69047;SDS011;56119;50.118;8.642;2023-01-28T06:20:00;5.33;;;3.50;;
69047;SDS011;56119;50.118;8.642;2023-01-28T06:22:26;5.25;;;3.90;;
69047;SDS011;56119;50.118;8.642;2023-01-28T06:24:52;6.43;;;4.17;;
69047;SDS011;56119;50.118;8.642;2023-01-28T06:27:18;5.27;;;3.50;;
69047;SDS011;56119;50.118;8.642;2023-01-28T06:29:44;5.63;;;3.87;;
69047;SDS011;56119;50.118;8.642;2023-01-28T06:32:10;6.10;;;3.53;;
69047;SDS011;56119;50.118;8.642;2023-01-28T06:34:36;5.53;;;3.63;;
69047;SDS011;56119;50.118;8.642;2023-01-28T06:37:02;5.70;;;3.60;;
69047;SDS011;56119;50.118;8.642;2023-01-28T06:39:28;5.90;;;3.60;;
69047;SDS011;56119;50.118;8.642;2023-01-28T06:41:56;5.37;;;3.77;;
69047;SDS011;56119;50.118;8.642;2023-01-28T06:44:22;4.90;;;3.97;;
69047;SDS011;56119;50.118;8.642;2023-01-28T06:46:48;6.63;;;4.20;;
69047;SDS011;56119;50.118;8.642;2023-01-28T06:49:14;5.93;;;4.00;;
69047;SDS011;56119;50.118;8.642;2023-01-28T06:51:40;6.13;;;3.97;;
69047;SDS011;56119;50.118;8.642;2023-01-28T06:54:06;3.73;;;3.33;;
69047;SDS011;56119;50.118;8.642;2023-01-28T06:56:32;5.83;;;3.73;;
69047;SDS011;56119;50.118;8.642;2023-01-28T06:58:58;5.73;;;3.80;;
69047;SDS011;56119;50.118;8.642;2023-01-28T07:01:24;5.87;;;3.60;;
69047;SDS011;56119;50.118;8.642;2023-01-28T07:03:50;6.10;;;3.53;;
69047;SDS011;56119;50.118;8.642;2023-01-28T07:06:16;8.50;;;3.72;;
69047;SDS011;56119;50.118;8.642;2023-01-28T07:08:42;6.33;;;3.50;;
69047;SDS011;56119;50.118;8.642;2023-01-28T07:11:08;6.03;;;3.50;;
69047;SDS011;56119;50.118;8.642;2023-01-28T07:13:34;7.87;;;3.53;;
69047;SDS011;56119;50.118;8.642;2023-01-28T07:16:00;5.60;;;3.70;;
69047;SDS011;56119;50.118;8.642;2023-01-28T07:18:26;8.10;;;4.23;;
69047;SDS011;56119;50.118;8.642;2023-01-28T07:20:52;6.40;;;3.72;;
69047;SDS011;56119;50.118;8.642;2023-01-28T07:23:18;6.63;;;3.90;;
69047;SDS011;56119;50.118;8.642;2023-01-28T07:25:44;6.88;;;3.60;;
69047;SDS011;56119;50.118;8.642;2023-01-28T07:28:10;6.50;;;3.23;;
69047;SDS011;56119;50.118;8.642;2023-01-28T07:30:36;5.80;;;3.53;;
69047;SDS011;56119;50.118;8.642;2023-01-28T07:33:02;4.33;;;2.97;;
69047;SDS011;56119;50.118;8.642;2023-01-28T07:35:28;4.83;;;3.23;;
69047;SDS011;56119;50.118;8.642;2023-01-28T07:37:57;4.17;;;3.03;;
69047;SDS011;56119;50.118;8.642;2023-01-28T07:40:23;5.47;;;3.42;;
69047;SDS011;56119;50.118;8.642;2023-01-28T07:42:49;6.15;;;2.70;;
69047;SDS011;56119;50.118;8.642;2023-01-28T07:45:16;5.03;;;3.33;;
69047;SDS011;56119;50.118;8.642;2023-01-28T07:47:42;4.00;;;3.20;;
69047;SDS011;56119;50.118;8.642;2023-01-28T07:50:09;5.33;;;2.97;;
69047;SDS011;56119;50.118;8.642;2023-01-28T07:52:35;6.77;;;3.30;;
69047;SDS011;56119;50.118;8.642;2023-01-28T07:55:08;6.03;;;3.47;;
69047;SDS011;56119;50.118;8.642;2023-01-28T07:57:34;5.80;;;3.03;;
69047;SDS011;56119;50.118;8.642;2023-01-28T08:00:00;4.97;;;3.27;;
69047;SDS011;56119;50.118;8.642;2023-01-28T08:02:26;6.23;;;2.67;;
69047;SDS011;56119;50.118;8.642;2023-01-28T08:04:53;6.60;;;3.00;;
69047;SDS011;56119;50.118;8.642;2023-01-28T08:07:23;9.75;;;3.20;;
69047;SDS011;56119;50.118;8.642;2023-01-28T08:09:50;6.22;;;3.17;;
69047;SDS011;56119;50.118;8.642;2023-01-28T08:12:16;3.22;;;2.65;;
69047;SDS011;56119;50.118;8.642;2023-01-28T08:14:42;6.15;;;3.50;;
69047;SDS011;56119;50.118;8.642;2023-01-28T08:17:07;4.82;;;2.97;;
69047;SDS011;56119;50.118;8.642;2023-01-28T08:19:33;4.33;;;3.00;;
69047;SDS011;56119;50.118;8.642;2023-01-28T08:21:59;5.67;;;3.40;;
69047;SDS011;56119;50.118;8.642;2023-01-28T08:24:25;3.63;;;2.83;;
69047;SDS011;56119;50.118;8.642;2023-01-28T08:26:51;5.70;;;3.03;;
69047;SDS011;56119;50.118;8.642;2023-01-28T08:29:17;4.63;;;3.15;;
69047;SDS011;56119;50.118;8.642;2023-01-28T08:31:43;4.57;;;2.83;;
69047;SDS011;56119;50.118;8.642;2023-01-28T08:34:09;5.95;;;3.35;;
69047;SDS011;56119;50.118;8.642;2023-01-28T08:36:35;6.15;;;3.28;;
69047;SDS011;56119;50.118;8.642;2023-01-28T08:39:01;5.97;;;3.83;;
69047;SDS011;56119;50.118;8.642;2023-01-28T08:41:28;6.78;;;3.40;;
69047;SDS011;56119;50.118;8.642;2023-01-28T08:43:54;4.10;;;2.90;;
69047;SDS011;56119;50.118;8.642;2023-01-28T08:46:20;5.13;;;3.38;;
69047;SDS011;56119;50.118;8.642;2023-01-28T08:48:48;4.28;;;2.90;;
69047;SDS011;56119;50.118;8.642;2023-01-28T08:51:14;4.22;;;2.70;;
69047;SDS011;56119;50.118;8.642;2023-01-28T08:53:40;6.20;;;3.42;;
69047;SDS011;56119;50.118;8.642;2023-01-28T08:56:06;5.13;;;2.85;;
69047;SDS011;56119;50.118;8.642;2023-01-28T08:58:32;5.38;;;3.25;;
69047;SDS011;56119;50.118;8.642;2023-01-28T09:01:02;7.10;;;3.40;;
69047;SDS011;56119;50.118;8.642;2023-01-28T09:03:28;8.23;;;3.05;;
69047;SDS011;56119;50.118;8.642;2023-01-28T09:05:58;4.95;;;3.67;;
69047;SDS011;56119;50.118;8.642;2023-01-28T09:08:25;7.05;;;3.05;;
69047;SDS011;56119;50.118;8.642;2023-01-28T09:10:53;3.28;;;2.75;;
69047;SDS011;56119;50.118;8.642;2023-01-28T09:13:19;3.83;;;2.85;;
69047;SDS011;56119;50.118;8.642;2023-01-28T09:15:45;6.05;;;3.42;;
69047;SDS011;56119;50.118;8.642;2023-01-28T09:18:11;7.25;;;2.90;;
69047;SDS011;56119;50.118;8.642;2023-01-28T09:20:38;4.35;;;2.80;;
69047;SDS011;56119;50.118;8.642;2023-01-28T09:23:04;3.95;;;2.80;;
69047;SDS011;56119;50.118;8.642;2023-01-28T09:25:30;4.40;;;2.70;;
69047;SDS011;56119;50.118;8.642;2023-01-28T09:27:56;3.85;;;2.60;;
69047;SDS011;56119;50.118;8.642;2023-01-28T09:30:23;4.13;;;3.05;;
69047;SDS011;56119;50.118;8.642;2023-01-28T09:32:49;5.97;;;3.03;;
69047;SDS011;56119;50.118;8.642;2023-01-28T09:35:15;5.50;;;2.88;;
69047;SDS011;56119;50.118;8.642;2023-01-28T09:37:42;4.38;;;2.63;;
69047;SDS011;56119;50.118;8.642;2023-01-28T09:40:13;5.18;;;3.03;;
69047;SDS011;56119;50.118;8.642;2023-01-28T09:42:50;5.88;;;3.47;;
69047;SDS011;56119;50.118;8.642;2023-01-28T09:45:20;5.20;;;3.28;;
69047;SDS011;56119;50.118;8.642;2023-01-28T09:47:53;6.60;;;3.13;;
69047;SDS011;56119;50.118;8.642;2023-01-28T09:50:25;4.70;;;3.03;;
69047;SDS011;56119;50.118;8.642;2023-01-28T09:52:53;3.63;;;2.80;;
69047;SDS011;56119;50.118;8.642;2023-01-28T09:55:28;4.03;;;2.97;;
69047;SDS011;56119;50.118;8.642;2023-01-28T09:57:56;5.95;;;3.10;;
69047;SDS011;56119;50.118;8.642;2023-01-28T10:00:36;4.68;;;3.33;;
69047;SDS011;56119;50.118;8.642;2023-01-28T10:03:21;4.38;;;2.90;;
69047;SDS011;56119;50.118;8.642;2023-01-28T10:05:52;4.20;;;3.08;;
69047;SDS011;56119;50.118;8.642;2023-01-28T10:08:34;5.75;;;3.40;;
69047;SDS011;56119;50.118;8.642;2023-01-28T10:13:46;6.00;;;3.28;;
69047;SDS011;56119;50.118;8.642;2023-01-28T10:16:19;5.90;;;3.28;;
69047;SDS011;56119;50.118;8.642;2023-01-28T10:19:00;4.97;;;3.47;;
69047;SDS011;56119;50.118;8.642;2023-01-28T10:21:35;4.97;;;3.03;;
69047;SDS011;56119;50.118;8.642;2023-01-28T10:24:15;6.22;;;3.58;;
69047;SDS011;56119;50.118;8.642;2023-01-28T10:26:42;3.65;;;2.90;;
69047;SDS011;56119;50.118;8.642;2023-01-28T10:29:22;4.40;;;3.30;;
69047;SDS011;56119;50.118;8.642;2023-01-28T10:32:00;4.95;;;3.22;;
69047;SDS011;56119;50.118;8.642;2023-01-28T10:34:29;5.78;;;3.33;;
69047;SDS011;56119;50.118;8.642;2023-01-28T10:36:56;4.70;;;3.10;;
69047;SDS011;56119;50.118;8.642;2023-01-28T10:39:22;4.85;;;2.90;;
69047;SDS011;56119;50.118;8.642;2023-01-28T10:41:49;4.90;;;3.00;;
69047;SDS011;56119;50.118;8.642;2023-01-28T10:44:35;6.65;;;3.42;;
69047;SDS011;56119;50.118;8.642;2023-01-28T10:47:03;4.38;;;2.95;;
69047;SDS011;56119;50.118;8.642;2023-01-28T10:49:35;4.80;;;2.85;;
69047;SDS011;56119;50.118;8.642;2023-01-28T10:52:14;6.22;;;3.15;;
69047;SDS011;56119;50.118;8.642;2023-01-28T10:54:42;4.18;;;3.03;;
69047;SDS011;56119;50.118;8.642;2023-01-28T10:57:15;7.00;;;3.22;;
69047;SDS011;56119;50.118;8.642;2023-01-28T10:59:42;4.00;;;3.10;;
69047;SDS011;56119;50.118;8.642;2023-01-28T11:02:19;4.35;;;3.00;;
69047;SDS011;56119;50.118;8.642;2023-01-28T11:04:46;4.97;;;3.00;;
69047;SDS011;56119;50.118;8.642;2023-01-28T11:07:19;4.70;;;2.72;;
69047;SDS011;56119;50.118;8.642;2023-01-28T11:09:50;6.25;;;3.95;;
69047;SDS011;56119;50.118;8.642;2023-01-28T11:12:20;4.30;;;2.80;;
69047;SDS011;56119;50.118;8.642;2023-01-28T11:14:50;3.03;;;2.38;;
69047;SDS011;56119;50.118;8.642;2023-01-28T11:17:17;4.60;;;2.92;;
69047;SDS011;56119;50.118;8.642;2023-01-28T11:19:43;5.63;;;2.67;;
69047;SDS011;56119;50.118;8.642;2023-01-28T11:22:18;5.22;;;2.80;;
69047;SDS011;56119;50.118;8.642;2023-01-28T11:24:46;4.85;;;2.85;;
69047;SDS011;56119;50.118;8.642;2023-01-28T11:27:14;4.47;;;2.80;;
69047;SDS011;56119;50.118;8.642;2023-01-28T11:29:41;3.33;;;2.55;;
69047;SDS011;56119;50.118;8.642;2023-01-28T11:32:18;3.28;;;2.63;;
69047;SDS011;56119;50.118;8.642;2023-01-28T11:34:48;3.40;;;2.40;;
69047;SDS011;56119;50.118;8.642;2023-01-28T11:37:15;5.65;;;2.97;;
69047;SDS011;56119;50.118;8.642;2023-01-28T11:39:41;4.78;;;2.90;;
69047;SDS011;56119;50.118;8.642;2023-01-28T11:44:36;3.88;;;2.65;;
69047;SDS011;56119;50.118;8.642;2023-01-28T11:47:15;5.07;;;2.75;;
69047;SDS011;56119;50.118;8.642;2023-01-28T11:52:16;4.45;;;2.70;;
69047;SDS011;56119;50.118;8.642;2023-01-28T12:07:43;4.15;;;2.85;;
69047;SDS011;56119;50.118;8.642;2023-01-28T12:10:31;5.18;;;2.65;;
69047;SDS011;56119;50.118;8.642;2023-01-28T12:18:08;4.20;;;3.15;;
69047;SDS011;56119;50.118;8.642;2023-01-28T12:20:41;3.92;;;2.83;;
69047;SDS011;56119;50.118;8.642;2023-01-28T12:23:15;4.88;;;3.28;;
69047;SDS011;56119;50.118;8.642;2023-01-28T12:26:05;4.97;;;3.25;;
69047;SDS011;56119;50.118;8.642;2023-01-28T12:28:51;4.40;;;2.92;;
69047;SDS011;56119;50.118;8.642;2023-01-28T12:33:53;3.53;;;2.42;;
69047;SDS011;56119;50.118;8.642;2023-01-28T12:41:49;3.67;;;2.60;;
69047;SDS011;56119;50.118;8.642;2023-01-28T12:44:19;3.70;;;2.70;;
69047;SDS011;56119;50.118;8.642;2023-01-28T12:46:49;5.82;;;2.90;;
69047;SDS011;56119;50.118;8.642;2023-01-28T12:49:30;5.03;;;2.45;;
69047;SDS011;56119;50.118;8.642;2023-01-28T12:57:04;3.67;;;2.17;;
69047;SDS011;56119;50.118;8.642;2023-01-28T12:59:38;3.85;;;1.90;;
69047;SDS011;56119;50.118;8.642;2023-01-28T13:04:38;2.70;;;2.00;;
69047;SDS011;56119;50.118;8.642;2023-01-28T13:07:11;4.70;;;2.50;;
69047;SDS011;56119;50.118;8.642;2023-01-28T13:09:42;3.55;;;2.30;;
69047;SDS011;56119;50.118;8.642;2023-01-28T13:12:09;4.25;;;2.45;;
69047;SDS011;56119;50.118;8.642;2023-01-28T13:14:36;3.72;;;2.67;;
69047;SDS011;56119;50.118;8.642;2023-01-28T13:17:09;3.72;;;2.28;;
69047;SDS011;56119;50.118;8.642;2023-01-28T13:19:36;4.10;;;2.03;;
69047;SDS011;56119;50.118;8.642;2023-01-28T13:22:24;3.63;;;2.10;;
69047;SDS011;56119;50.118;8.642;2023-01-28T13:24:51;3.10;;;2.20;;
69047;SDS011;56119;50.118;8.642;2023-01-28T13:27:25;3.70;;;2.33;;
69047;SDS011;56119;50.118;8.642;2023-01-28T13:30:02;5.07;;;2.63;;
69047;SDS011;56119;50.118;8.642;2023-01-28T13:32:30;2.50;;;2.20;;
69047;SDS011;56119;50.118;8.642;2023-01-28T13:34:58;3.53;;;2.05;;
69047;SDS011;56119;50.118;8.642;2023-01-28T13:38:06;2.92;;;1.92;;
69047;SDS011;56119;50.118;8.642;2023-01-28T13:40:25;2.90;;;1.98;;
69047;SDS011;56119;50.118;8.642;2023-01-28T13:43:03;3.78;;;2.28;;
69047;SDS011;56119;50.118;8.642;2023-01-28T13:45:29;3.72;;;2.10;;
69047;SDS011;56119;50.118;8.642;2023-01-28T13:50:40;2.22;;;1.88;;
69047;SDS011;56119;50.118;8.642;2023-01-28T13:53:26;5.28;;;2.40;;
69047;SDS011;56119;50.118;8.642;2023-01-28T13:55:54;4.88;;;2.10;;
69047;SDS011;56119;50.118;8.642;2023-01-28T13:58:33;3.47;;;1.60;;
69047;SDS011;56119;50.118;8.642;2023-01-28T14:17:02;4.28;;;1.90;;
69047;SDS011;56119;50.118;8.642;2023-01-28T14:19:34;3.35;;;1.90;;
69047;SDS011;56119;50.118;8.642;2023-01-28T14:22:07;3.03;;;2.10;;
69047;SDS011;56119;50.118;8.642;2023-01-28T14:24:35;4.32;;;2.30;;
69047;SDS011;56119;50.118;8.642;2023-01-28T14:27:11;3.00;;;1.80;;
69047;SDS011;56119;50.118;8.642;2023-01-28T14:32:21;4.85;;;2.28;;
69047;SDS011;56119;50.118;8.642;2023-01-28T14:34:50;3.38;;;1.95;;
69047;SDS011;56119;50.118;8.642;2023-01-28T14:37:18;5.45;;;2.20;;
69047;SDS011;56119;50.118;8.642;2023-01-28T14:42:45;2.75;;;2.03;;
69047;SDS011;56119;50.118;8.642;2023-01-28T14:45:21;4.15;;;1.90;;
69047;SDS011;56119;50.118;8.642;2023-01-28T14:47:52;3.10;;;2.03;;
69047;SDS011;56119;50.118;8.642;2023-01-28T14:50:24;2.25;;;1.75;;
69047;SDS011;56119;50.118;8.642;2023-01-28T14:55:31;6.22;;;2.30;;
69047;SDS011;56119;50.118;8.642;2023-01-28T14:58:00;3.70;;;2.50;;
69047;SDS011;56119;50.118;8.642;2023-01-28T15:00:28;7.13;;;2.28;;
69047;SDS011;56119;50.118;8.642;2023-01-28T15:02:55;2.47;;;2.25;;
69047;SDS011;56119;50.118;8.642;2023-01-28T15:05:22;4.60;;;2.15;;
69047;SDS011;56119;50.118;8.642;2023-01-28T15:07:49;3.03;;;1.90;;
69047;SDS011;56119;50.118;8.642;2023-01-28T15:12:42;3.10;;;2.25;;
69047;SDS011;56119;50.118;8.642;2023-01-28T15:15:26;4.80;;;2.15;;
69047;SDS011;56119;50.118;8.642;2023-01-28T15:17:53;4.45;;;2.40;;
69047;SDS011;56119;50.118;8.642;2023-01-28T15:20:20;5.50;;;2.47;;
69047;SDS011;56119;50.118;8.642;2023-01-28T15:22:47;2.45;;;1.95;;
69047;SDS011;56119;50.118;8.642;2023-01-28T15:25:14;5.53;;;2.10;;
69047;SDS011;56119;50.118;8.642;2023-01-28T15:27:40;4.10;;;2.45;;
69047;SDS011;56119;50.118;8.642;2023-01-28T15:30:17;2.63;;;2.40;;
69047;SDS011;56119;50.118;8.642;2023-01-28T15:32:44;4.20;;;2.53;;
69047;SDS011;56119;50.118;8.642;2023-01-28T15:35:11;7.82;;;2.33;;
69047;SDS011;56119;50.118;8.642;2023-01-28T15:37:38;6.75;;;2.30;;
69047;SDS011;56119;50.118;8.642;2023-01-28T15:40:04;2.95;;;2.45;;
69047;SDS011;56119;50.118;8.642;2023-01-28T15:42:31;2.63;;;1.90;;
69047;SDS011;56119;50.118;8.642;2023-01-28T15:44:57;3.58;;;2.50;;
69047;SDS011;56119;50.118;8.642;2023-01-28T15:49:53;3.35;;;2.38;;
69047;SDS011;56119;50.118;8.642;2023-01-28T15:52:20;4.72;;;2.60;;
69047;SDS011;56119;50.118;8.642;2023-01-28T15:54:53;6.53;;;2.60;;
69047;SDS011;56119;50.118;8.642;2023-01-28T15:57:20;3.25;;;2.30;;
69047;SDS011;56119;50.118;8.642;2023-01-28T15:59:46;2.83;;;2.33;;
69047;SDS011;56119;50.118;8.642;2023-01-28T16:04:57;5.32;;;2.70;;
69047;SDS011;56119;50.118;8.642;2023-01-28T16:07:24;4.63;;;2.60;;
69047;SDS011;56119;50.118;8.642;2023-01-28T16:09:51;3.47;;;2.63;;
69047;SDS011;56119;50.118;8.642;2023-01-28T16:12:18;3.42;;;2.80;;
69047;SDS011;56119;50.118;8.642;2023-01-28T16:14:49;4.83;;;2.87;;
69047;SDS011;56119;50.118;8.642;2023-01-28T16:17:17;4.50;;;2.20;;
69047;SDS011;56119;50.118;8.642;2023-01-28T16:19:45;5.60;;;3.10;;
69047;SDS011;56119;50.118;8.642;2023-01-28T16:22:27;5.40;;;3.07;;
69047;SDS011;56119;50.118;8.642;2023-01-28T16:24:54;4.78;;;2.55;;
69047;SDS011;56119;50.118;8.642;2023-01-28T16:27:21;6.53;;;2.80;;
69047;SDS011;56119;50.118;8.642;2023-01-28T16:29:47;3.83;;;2.70;;
69047;SDS011;56119;50.118;8.642;2023-01-28T16:32:32;3.65;;;2.33;;
69047;SDS011;56119;50.118;8.642;2023-01-28T16:34:58;3.80;;;2.70;;